• Join FlightAware (Why Join?)
  • Login
  • US Flag 
05:31PM EDT


 

Airport Tracker/Info


-or-


 

Live Flight TrackerFlight Track Log ✈ BYA373 ✈ 12-Feb-2014 ✈ KGZS - KLGC

Flight Track Log - Related Links

Times and Time Zones

All times are in EST time to prevent confusion due to time zone crossing. See the BYA373 flight status page for this flight to view local times or setup timezone preferences in your user account.

Time Position Orientation Groundspeed Altitude Reporting Facility
EST Latitude Longitude Course Direction KTS MPH feet Rate Location/Type
01:41AM 35.0797 -86.9864 130° Southeast 149 171 6,100  Level Memphis Center
01:42AM 35.0497 -86.9450 132° Southeast 157 181 8,000 1,740 Climbing Memphis Center
01:43AM 35.0167 -86.9008 132° Southeast 169 194 9,600 1,620 Climbing Memphis Center
01:44AM 34.9819 -86.8561 133° Southeast 178 205 11,300 1,380 Climbing Memphis Center
01:45AM 34.9458 -86.8094 133° Southeast 185 213 12,400 1,020 Climbing Memphis Center
01:46AM 34.9119 -86.7592 129° Southeast 190 219 13,400 960 Climbing Memphis Center
01:47AM 34.8753 -86.7117 133° Southeast 192 221 14,400 900 Climbing Memphis Center
01:48AM 34.8294 -86.6681 142° Southeast 205 236 15,200 780 Climbing Memphis Center
01:49AM 34.7772 -86.6331 151° Southeast 213 245 16,000 840 Climbing Memphis Center
01:50AM 34.7264 -86.5858 143° Southeast 223 257 16,900 660 Climbing Memphis Center
01:51AM 34.6764 -86.5367 141° Southeast 230 265 17,400  Climbing Memphis Center
01:52AM 34.6181 -86.4903 147° Southeast 244 281 17,000 -300 Descending Memphis Center
01:52AM 34.5883 -86.4686 149° Southeast 253 291 17,000  Level Atlanta Center
01:53AM 34.5244 -86.4264 151° Southeast 265 305 17,000  Level Atlanta Center
01:54AM 34.4564 -86.3867 154° Southeast 270 311 17,000  Level Atlanta Center
01:55AM 34.3925 -86.3522 156° South 264 304 17,100  Climbing Atlanta Center
01:56AM 34.3286 -86.3053 149° Southeast 264 304 17,100  Level Atlanta Center
01:57AM 34.2647 -86.2581 149° Southeast 259 298 17,100 -60 Level Atlanta Center
01:58AM 34.2008 -86.2214 155° Southeast 264 304 17,000  Descending Atlanta Center
01:59AM 34.1344 -86.1894 158° South 258 297 17,100  Climbing Atlanta Center
02:00AM 34.0725 -86.1453 149° Southeast 253 291 17,100  Level Atlanta Center
02:01AM 34.0194 -86.0864 137° Southeast 260 299 17,100 -60 Level Atlanta Center
02:02AM 33.9769 -86.0053 122° Southeast 273 314 17,000  Descending Atlanta Center
02:03AM 33.9278 -85.9364 131° Southeast 273 314 17,100  Climbing Atlanta Center
02:04AM 33.8744 -85.8703 134° Southeast 268 308 17,000  Descending Atlanta Center
02:05AM 33.8192 -85.8117 139° Southeast 268 308 17,100 -300 Climbing Atlanta Center
02:06AM 33.7614 -85.7503 139° Southeast 274 315 16,400 -900 Descending Atlanta Center
02:07AM 33.6997 -85.6917 142° Southeast 290 334 15,300 -1,200 Descending Atlanta Center
02:08AM 33.6336 -85.6406 147° Southeast 288 331 14,100 -1,140 Descending Atlanta Center
02:09AM 33.5717 -85.5922 147° Southeast 274 315 13,100 -960 Descending Atlanta Center
02:10AM 33.5011 -85.5411 149° Southeast 268 308 12,200 -900 Descending Atlanta Center
02:11AM 33.4392 -85.5000 151° Southeast 263 303 11,400 -900 Descending Atlanta Center
02:12AM 33.3811 -85.4569 148° Southeast 263 303 10,500 -900 Descending Atlanta Center
02:13AM 33.3231 -85.4186 151° Southeast 246 283 9,600 -1,080 Descending Atlanta Center
02:14AM 33.2631 -85.3803 152° Southeast 246 283 8,400 -1,380 Descending Atlanta Center
02:15AM 33.2031 -85.3322 146° Southeast 246 283 6,900 -1,380 Descending Atlanta Center
02:16AM 33.1450 -85.2867 147° Southeast 251 289 5,700 -960 Descending Atlanta Center
02:17AM 33.0956 -85.2389 141° Southeast 246 283 5,000 -720 Descending Atlanta Center
02:18AM 33.0458 -85.1886 140° Southeast 233 268 4,300 -660 Descending Atlanta Center
02:19AM 33.0172 -85.1289 120° Southeast 220 253 3,700 -360 Descending Atlanta Center
02:20AM 32.9861 -85.0814 128° Southeast 207 238 3,600 -180 Descending Atlanta Center
02:24AM 32.9567 -84.8631 99° East 275 316 2,800 -240 Descending Atlanta Center